San Diego, CA (92174)

9:25 AM PDT on August 02, 2015 (GMT -0700)
Valencia Park | | Change Station
CLOSE
Current Station
Personal Weather Station
Location: San Diego, CA
Elevation: 180 ft
Nearby Weather Stations

Elev 180 ft 32.70 °N, 117.08 °W | Updated 1 minute ago

Overcast
Overcast
71.1 °F
Feels Like 72 °F
N
0.0
Wind Variable Wind from NW

Today
High -- | Low -- °F
--% Chance of Precip.
Yesterday
High -- | Low -- °F
Precip. -- in
6:02 AM 7:45 PM
Waning Gibbous, 93% visible
Pressure 29.94 in
Visibility 10.0 miles
Clouds Overcast 1100 ft
Heat Index 72 °F
Dew Point 64 °F
Humidity 77%
Rainfall 0.00 in
Snow Depth Not available.
UV 1 out of 12
Pollen 4.60 out of 12
Air Quality Not available.
Flu Activity Not available.
METAR KSAN 021551Z 00000KT 10SM OVC011 21/17 A2994 RMK AO2 SLP139 T02110172 $

More Conditions Fewer Conditions

Pressure 29.94 in
Visibility 10.0 miles
Clouds Overcast 1100 ft
Heat Index 72 °F
Dew Point 64 °F
Humidity 77%
Rainfall 0.00 in
Snow Depth Not available.
UV 1 out of 12
Pollen 4.60 out of 12
Air Quality Not available.
Flu Activity Not available.
METAR KSAN 021551Z 00000KT 10SM OVC011 21/17 A2994 RMK AO2 SLP139 T02110172 $

More Conditions Fewer Conditions

10-Day Weather Forecast

×

Almanac

Astronomy

Aug. 02, 2015 Rise Set
Actual Time
Civil Twilight
Nautical Twilight
Astronomical Twilight
Moon
Length of Visible Light
Length of Day
Tomorrow will be .
, % of the Moon is Illuminated

Today's Extremes

State Highs State Lows

Community

WunderPhotos

Upload Photos

1,843,300 photos uploaded!

WunderBlogs® & News

Nearby

Air Quality

  Air Quality AQ Index Pollutant
Not available.

Snow Depth

Station Depth Elevation

Earthquake Activity

City Distance Mag. Time & Date
Minimum magnitude displayed is 2.5.

Coastal Water Temperatures

Place Temperature

Stations

Nearby Weather Stations

Station Location Temp. Windchill Dew Point Humidity Wind Precip. Elev Updated Type